Terminal Aerodrome Forecast
Issued by NWS Tuscon, AZ

Home | Current Version | Previous Version | Text Only | Print | Product List | Glossary On
Versions: 1 2 3 4 5 6 7 8 9 10 11 12
000
FTUS45 KTWC 201133
TAFTUS
TAF
KTUS 201133Z 2012/2112 15008KT P6SM SCT250
     FM201700 21010KT P6SM SCT250
     FM202000 25015G24KT P6SM FEW250
     FM210200 27008KT P6SM FEW250
     FM210600 23005KT P6SM SCT250
     FM211000 14006KT P6SM SCT250=

USA.gov is the U.S. government's official web portal to all federal, state and local government web resources and services.